sensor_id;sensor_type;location;lat;lon;timestamp;P1;durP1;ratioP1;P2;durP2;ratioP2
23171;SDS011;11754;42.664;23.594;2023-04-07T00:00:47;24.38;;;15.90;;
23171;SDS011;11754;42.664;23.594;2023-04-07T00:03:13;22.55;;;15.93;;
23171;SDS011;11754;42.664;23.594;2023-04-07T00:05:38;24.75;;;16.67;;
23171;SDS011;11754;42.664;23.594;2023-04-07T00:08:03;22.52;;;15.60;;
23171;SDS011;11754;42.664;23.594;2023-04-07T00:10:29;22.92;;;16.38;;
23171;SDS011;11754;42.664;23.594;2023-04-07T00:12:55;26.40;;;15.95;;
23171;SDS011;11754;42.664;23.594;2023-04-07T00:15:20;28.33;;;16.45;;
23171;SDS011;11754;42.664;23.594;2023-04-07T00:17:45;23.83;;;16.85;;
23171;SDS011;11754;42.664;23.594;2023-04-07T00:20:11;26.60;;;17.98;;
23171;SDS011;11754;42.664;23.594;2023-04-07T00:22:36;27.50;;;17.15;;
23171;SDS011;11754;42.664;23.594;2023-04-07T00:25:05;29.08;;;17.60;;
23171;SDS011;11754;42.664;23.594;2023-04-07T00:27:31;46.70;;;25.08;;
23171;SDS011;11754;42.664;23.594;2023-04-07T00:29:56;39.88;;;26.98;;
23171;SDS011;11754;42.664;23.594;2023-04-07T00:32:21;45.20;;;31.33;;
23171;SDS011;11754;42.664;23.594;2023-04-07T00:34:47;43.17;;;27.50;;
23171;SDS011;11754;42.664;23.594;2023-04-07T00:37:12;37.88;;;26.40;;
23171;SDS011;11754;42.664;23.594;2023-04-07T00:39:38;33.50;;;22.73;;
23171;SDS011;11754;42.664;23.594;2023-04-07T00:42:03;31.80;;;23.80;;
23171;SDS011;11754;42.664;23.594;2023-04-07T00:44:32;36.38;;;25.05;;
23171;SDS011;11754;42.664;23.594;2023-04-07T00:46:58;33.28;;;22.77;;
23171;SDS011;11754;42.664;23.594;2023-04-07T00:49:24;30.33;;;20.80;;
23171;SDS011;11754;42.664;23.594;2023-04-07T00:51:52;44.92;;;31.73;;
23171;SDS011;11754;42.664;23.594;2023-04-07T00:54:18;30.42;;;21.90;;
23171;SDS011;11754;42.664;23.594;2023-04-07T00:56:43;29.90;;;20.15;;
23171;SDS011;11754;42.664;23.594;2023-04-07T00:59:09;33.58;;;20.98;;
23171;SDS011;11754;42.664;23.594;2023-04-07T01:01:36;30.25;;;20.40;;
23171;SDS011;11754;42.664;23.594;2023-04-07T01:07:22;34.72;;;20.02;;
23171;SDS011;11754;42.664;23.594;2023-04-07T01:10:02;33.55;;;20.25;;
23171;SDS011;11754;42.664;23.594;2023-04-07T01:12:54;31.00;;;18.75;;
23171;SDS011;11754;42.664;23.594;2023-04-07T01:15:26;33.63;;;20.20;;
23171;SDS011;11754;42.664;23.594;2023-04-07T01:17:54;30.30;;;20.15;;
23171;SDS011;11754;42.664;23.594;2023-04-07T01:20:24;31.58;;;20.30;;
23171;SDS011;11754;42.664;23.594;2023-04-07T01:22:55;34.15;;;18.98;;
23171;SDS011;11754;42.664;23.594;2023-04-07T01:30:20;35.20;;;22.63;;
23171;SDS011;11754;42.664;23.594;2023-04-07T01:32:51;37.95;;;22.38;;
23171;SDS011;11754;42.664;23.594;2023-04-07T01:35:18;38.30;;;23.20;;
23171;SDS011;11754;42.664;23.594;2023-04-07T01:37:46;38.00;;;23.27;;
23171;SDS011;11754;42.664;23.594;2023-04-07T01:40:14;35.72;;;21.50;;
23171;SDS011;11754;42.664;23.594;2023-04-07T01:42:40;40.70;;;22.10;;
23171;SDS011;11754;42.664;23.594;2023-04-07T01:45:07;43.63;;;24.42;;
23171;SDS011;11754;42.664;23.594;2023-04-07T01:47:35;40.50;;;23.05;;
23171;SDS011;11754;42.664;23.594;2023-04-07T01:50:03;45.63;;;25.55;;
23171;SDS011;11754;42.664;23.594;2023-04-07T01:52:33;48.80;;;26.75;;
23171;SDS011;11754;42.664;23.594;2023-04-07T01:54:59;40.42;;;23.98;;
23171;SDS011;11754;42.664;23.594;2023-04-07T01:57:25;37.92;;;23.88;;
23171;SDS011;11754;42.664;23.594;2023-04-07T01:59:50;36.30;;;22.88;;
23171;SDS011;11754;42.664;23.594;2023-04-07T02:02:17;28.58;;;18.42;;
23171;SDS011;11754;42.664;23.594;2023-04-07T02:04:55;28.88;;;18.35;;
23171;SDS011;11754;42.664;23.594;2023-04-07T02:09:57;27.98;;;17.88;;
23171;SDS011;11754;42.664;23.594;2023-04-07T02:12:27;29.90;;;19.10;;
23171;SDS011;11754;42.664;23.594;2023-04-07T02:14:54;34.13;;;21.63;;
23171;SDS011;11754;42.664;23.594;2023-04-07T02:17:21;38.35;;;21.73;;
23171;SDS011;11754;42.664;23.594;2023-04-07T02:19:49;34.60;;;21.08;;
23171;SDS011;11754;42.664;23.594;2023-04-07T02:22:15;36.28;;;21.40;;
23171;SDS011;11754;42.664;23.594;2023-04-07T02:24:41;32.88;;;19.88;;
23171;SDS011;11754;42.664;23.594;2023-04-07T02:27:07;33.13;;;19.85;;
23171;SDS011;11754;42.664;23.594;2023-04-07T02:29:32;32.25;;;19.77;;
23171;SDS011;11754;42.664;23.594;2023-04-07T02:31:57;32.08;;;19.92;;
23171;SDS011;11754;42.664;23.594;2023-04-07T02:34:23;39.67;;;22.02;;
23171;SDS011;11754;42.664;23.594;2023-04-07T02:36:48;33.67;;;21.00;;
23171;SDS011;11754;42.664;23.594;2023-04-07T02:39:13;35.53;;;21.40;;
23171;SDS011;11754;42.664;23.594;2023-04-07T02:41:39;34.47;;;21.42;;
23171;SDS011;11754;42.664;23.594;2023-04-07T02:44:04;38.47;;;20.13;;
23171;SDS011;11754;42.664;23.594;2023-04-07T02:46:30;32.88;;;20.02;;
23171;SDS011;11754;42.664;23.594;2023-04-07T02:48:55;33.42;;;20.30;;
23171;SDS011;11754;42.664;23.594;2023-04-07T02:51:21;27.25;;;18.35;;
23171;SDS011;11754;42.664;23.594;2023-04-07T02:53:46;29.88;;;18.98;;
23171;SDS011;11754;42.664;23.594;2023-04-07T02:56:11;31.73;;;19.20;;
23171;SDS011;11754;42.664;23.594;2023-04-07T02:58:37;28.90;;;18.55;;
23171;SDS011;11754;42.664;23.594;2023-04-07T03:01:02;29.02;;;19.02;;
23171;SDS011;11754;42.664;23.594;2023-04-07T03:03:28;31.00;;;18.50;;
23171;SDS011;11754;42.664;23.594;2023-04-07T03:05:54;32.65;;;21.48;;
23171;SDS011;11754;42.664;23.594;2023-04-07T03:08:20;35.13;;;22.60;;
23171;SDS011;11754;42.664;23.594;2023-04-07T03:10:45;52.63;;;26.52;;
23171;SDS011;11754;42.664;23.594;2023-04-07T03:13:11;50.58;;;26.25;;
23171;SDS011;11754;42.664;23.594;2023-04-07T03:15:40;47.20;;;26.05;;
23171;SDS011;11754;42.664;23.594;2023-04-07T03:18:05;49.38;;;28.08;;
23171;SDS011;11754;42.664;23.594;2023-04-07T03:20:31;39.90;;;24.50;;
23171;SDS011;11754;42.664;23.594;2023-04-07T03:22:56;45.50;;;25.95;;
23171;SDS011;11754;42.664;23.594;2023-04-07T03:25:21;38.60;;;24.58;;
23171;SDS011;11754;42.664;23.594;2023-04-07T03:27:47;37.70;;;23.10;;
23171;SDS011;11754;42.664;23.594;2023-04-07T03:30:12;37.85;;;21.95;;
23171;SDS011;11754;42.664;23.594;2023-04-07T03:32:38;35.45;;;20.77;;
23171;SDS011;11754;42.664;23.594;2023-04-07T03:35:03;31.75;;;20.05;;
23171;SDS011;11754;42.664;23.594;2023-04-07T03:37:29;30.45;;;19.45;;
23171;SDS011;11754;42.664;23.594;2023-04-07T03:39:54;32.28;;;20.33;;
23171;SDS011;11754;42.664;23.594;2023-04-07T03:42:20;33.92;;;20.08;;
23171;SDS011;11754;42.664;23.594;2023-04-07T03:44:45;33.45;;;21.17;;
23171;SDS011;11754;42.664;23.594;2023-04-07T03:47:11;31.17;;;19.90;;
23171;SDS011;11754;42.664;23.594;2023-04-07T03:49:36;30.38;;;19.50;;
23171;SDS011;11754;42.664;23.594;2023-04-07T03:52:02;30.23;;;18.75;;
23171;SDS011;11754;42.664;23.594;2023-04-07T03:54:29;33.97;;;20.40;;
23171;SDS011;11754;42.664;23.594;2023-04-07T03:56:54;35.85;;;20.17;;
23171;SDS011;11754;42.664;23.594;2023-04-07T03:59:21;34.85;;;19.85;;
23171;SDS011;11754;42.664;23.594;2023-04-07T04:01:46;43.03;;;23.83;;
23171;SDS011;11754;42.664;23.594;2023-04-07T04:04:12;44.75;;;24.23;;
23171;SDS011;11754;42.664;23.594;2023-04-07T04:06:37;45.03;;;25.75;;
23171;SDS011;11754;42.664;23.594;2023-04-07T04:09:03;39.72;;;25.90;;
23171;SDS011;11754;42.664;23.594;2023-04-07T04:11:28;41.97;;;24.83;;
23171;SDS011;11754;42.664;23.594;2023-04-07T04:13:55;40.00;;;26.05;;
23171;SDS011;11754;42.664;23.594;2023-04-07T04:16:21;44.45;;;28.05;;
23171;SDS011;11754;42.664;23.594;2023-04-07T04:18:46;47.08;;;27.98;;
23171;SDS011;11754;42.664;23.594;2023-04-07T04:21:12;49.08;;;28.63;;
23171;SDS011;11754;42.664;23.594;2023-04-07T04:23:37;38.20;;;24.35;;
23171;SDS011;11754;42.664;23.594;2023-04-07T04:26:02;41.50;;;24.08;;
23171;SDS011;11754;42.664;23.594;2023-04-07T04:28:28;46.03;;;24.80;;
23171;SDS011;11754;42.664;23.594;2023-04-07T04:30:54;46.58;;;23.27;;
23171;SDS011;11754;42.664;23.594;2023-04-07T04:33:19;41.13;;;21.98;;
23171;SDS011;11754;42.664;23.594;2023-04-07T04:35:45;42.63;;;23.83;;
23171;SDS011;11754;42.664;23.594;2023-04-07T04:38:10;51.17;;;28.67;;
23171;SDS011;11754;42.664;23.594;2023-04-07T04:40:36;47.45;;;26.88;;
23171;SDS011;11754;42.664;23.594;2023-04-07T04:43:01;42.20;;;26.02;;
23171;SDS011;11754;42.664;23.594;2023-04-07T04:45:31;41.15;;;23.85;;
23171;SDS011;11754;42.664;23.594;2023-04-07T04:47:56;38.42;;;22.40;;
23171;SDS011;11754;42.664;23.594;2023-04-07T04:50:22;35.38;;;21.58;;
23171;SDS011;11754;42.664;23.594;2023-04-07T04:52:47;35.47;;;20.77;;
23171;SDS011;11754;42.664;23.594;2023-04-07T04:55:13;43.55;;;21.58;;
23171;SDS011;11754;42.664;23.594;2023-04-07T04:57:38;36.53;;;23.30;;
23171;SDS011;11754;42.664;23.594;2023-04-07T05:00:04;43.97;;;23.38;;
23171;SDS011;11754;42.664;23.594;2023-04-07T05:02:31;29.30;;;20.42;;
23171;SDS011;11754;42.664;23.594;2023-04-07T05:04:57;33.65;;;20.88;;
23171;SDS011;11754;42.664;23.594;2023-04-07T05:07:22;39.17;;;21.58;;
23171;SDS011;11754;42.664;23.594;2023-04-07T05:09:48;42.83;;;23.42;;
23171;SDS011;11754;42.664;23.594;2023-04-07T05:12:14;36.15;;;21.77;;
23171;SDS011;11754;42.664;23.594;2023-04-07T05:14:39;39.05;;;22.30;;
23171;SDS011;11754;42.664;23.594;2023-04-07T05:17:05;37.85;;;22.63;;
23171;SDS011;11754;42.664;23.594;2023-04-07T05:19:30;43.30;;;23.15;;
23171;SDS011;11754;42.664;23.594;2023-04-07T05:21:56;41.08;;;22.77;;
23171;SDS011;11754;42.664;23.594;2023-04-07T05:24:22;51.42;;;29.30;;
23171;SDS011;11754;42.664;23.594;2023-04-07T05:26:50;47.78;;;28.95;;
23171;SDS011;11754;42.664;23.594;2023-04-07T05:29:15;42.58;;;26.80;;
23171;SDS011;11754;42.664;23.594;2023-04-07T05:31:40;49.30;;;28.27;;
23171;SDS011;11754;42.664;23.594;2023-04-07T05:34:06;46.72;;;26.63;;
23171;SDS011;11754;42.664;23.594;2023-04-07T05:36:32;33.50;;;21.48;;
23171;SDS011;11754;42.664;23.594;2023-04-07T05:38:57;45.03;;;24.67;;
23171;SDS011;11754;42.664;23.594;2023-04-07T05:41:23;35.35;;;20.85;;
23171;SDS011;11754;42.664;23.594;2023-04-07T05:43:48;34.00;;;18.77;;
23171;SDS011;11754;42.664;23.594;2023-04-07T05:46:14;30.52;;;18.50;;
23171;SDS011;11754;42.664;23.594;2023-04-07T05:48:39;37.47;;;21.65;;
23171;SDS011;11754;42.664;23.594;2023-04-07T05:51:05;31.27;;;19.23;;
23171;SDS011;11754;42.664;23.594;2023-04-07T05:53:30;29.83;;;18.17;;
23171;SDS011;11754;42.664;23.594;2023-04-07T05:55:55;25.90;;;17.33;;
23171;SDS011;11754;42.664;23.594;2023-04-07T05:58:21;25.13;;;16.42;;
23171;SDS011;11754;42.664;23.594;2023-04-07T06:00:46;42.75;;;16.70;;
23171;SDS011;11754;42.664;23.594;2023-04-07T06:03:11;26.00;;;16.20;;
23171;SDS011;11754;42.664;23.594;2023-04-07T06:05:37;22.83;;;15.90;;
23171;SDS011;11754;42.664;23.594;2023-04-07T06:08:07;22.27;;;16.88;;
23171;SDS011;11754;42.664;23.594;2023-04-07T06:10:32;25.83;;;16.65;;
23171;SDS011;11754;42.664;23.594;2023-04-07T06:12:58;26.98;;;17.35;;
23171;SDS011;11754;42.664;23.594;2023-04-07T06:15:23;39.28;;;24.05;;
23171;SDS011;11754;42.664;23.594;2023-04-07T06:17:48;37.55;;;21.17;;
23171;SDS011;11754;42.664;23.594;2023-04-07T06:20:14;36.03;;;19.10;;
23171;SDS011;11754;42.664;23.594;2023-04-07T06:22:39;36.83;;;24.15;;
23171;SDS011;11754;42.664;23.594;2023-04-07T06:25:05;30.98;;;21.48;;
23171;SDS011;11754;42.664;23.594;2023-04-07T06:27:31;33.05;;;22.70;;
23171;SDS011;11754;42.664;23.594;2023-04-07T06:29:57;35.58;;;21.60;;
23171;SDS011;11754;42.664;23.594;2023-04-07T06:32:22;43.45;;;23.27;;
23171;SDS011;11754;42.664;23.594;2023-04-07T06:34:48;35.67;;;22.55;;
23171;SDS011;11754;42.664;23.594;2023-04-07T06:37:13;30.95;;;20.20;;
23171;SDS011;11754;42.664;23.594;2023-04-07T06:39:40;34.22;;;20.02;;
23171;SDS011;11754;42.664;23.594;2023-04-07T06:42:06;35.78;;;20.42;;
23171;SDS011;11754;42.664;23.594;2023-04-07T06:44:31;24.17;;;16.63;;
23171;SDS011;11754;42.664;23.594;2023-04-07T06:46:57;20.90;;;15.20;;
23171;SDS011;11754;42.664;23.594;2023-04-07T06:49:22;27.73;;;17.27;;
23171;SDS011;11754;42.664;23.594;2023-04-07T06:51:48;28.40;;;17.65;;
23171;SDS011;11754;42.664;23.594;2023-04-07T06:54:13;28.00;;;16.48;;
23171;SDS011;11754;42.664;23.594;2023-04-07T06:56:39;26.83;;;17.45;;
23171;SDS011;11754;42.664;23.594;2023-04-07T06:59:06;21.58;;;14.48;;
23171;SDS011;11754;42.664;23.594;2023-04-07T07:01:31;28.17;;;19.67;;
23171;SDS011;11754;42.664;23.594;2023-04-07T07:03:57;27.15;;;16.17;;
23171;SDS011;11754;42.664;23.594;2023-04-07T07:06:24;24.17;;;14.90;;
23171;SDS011;11754;42.664;23.594;2023-04-07T07:08:50;22.13;;;13.82;;
23171;SDS011;11754;42.664;23.594;2023-04-07T07:11:16;19.92;;;13.38;;
23171;SDS011;11754;42.664;23.594;2023-04-07T07:13:41;21.00;;;13.60;;
23171;SDS011;11754;42.664;23.594;2023-04-07T07:16:06;19.33;;;13.35;;
23171;SDS011;11754;42.664;23.594;2023-04-07T07:18:32;28.85;;;16.25;;
23171;SDS011;11754;42.664;23.594;2023-04-07T07:20:57;25.58;;;14.70;;
23171;SDS011;11754;42.664;23.594;2023-04-07T07:23:23;22.58;;;13.88;;
23171;SDS011;11754;42.664;23.594;2023-04-07T07:25:48;23.73;;;13.57;;
23171;SDS011;11754;42.664;23.594;2023-04-07T07:28:14;21.75;;;13.90;;
23171;SDS011;11754;42.664;23.594;2023-04-07T07:30:40;20.63;;;12.30;;
23171;SDS011;11754;42.664;23.594;2023-04-07T07:33:05;22.67;;;14.60;;
23171;SDS011;11754;42.664;23.594;2023-04-07T07:35:31;28.80;;;16.73;;
23171;SDS011;11754;42.664;23.594;2023-04-07T07:37:56;15.25;;;9.57;;
23171;SDS011;11754;42.664;23.594;2023-04-07T07:40:22;21.85;;;10.90;;
23171;SDS011;11754;42.664;23.594;2023-04-07T07:42:50;17.83;;;9.35;;
23171;SDS011;11754;42.664;23.594;2023-04-07T07:45:15;14.38;;;10.38;;
23171;SDS011;11754;42.664;23.594;2023-04-07T07:47:43;20.95;;;10.10;;
23171;SDS011;11754;42.664;23.594;2023-04-07T07:50:09;13.85;;;9.93;;
23171;SDS011;11754;42.664;23.594;2023-04-07T07:52:35;12.98;;;9.52;;
23171;SDS011;11754;42.664;23.594;2023-04-07T07:55:00;18.20;;;10.73;;
23171;SDS011;11754;42.664;23.594;2023-04-07T07:57:26;17.05;;;9.95;;
23171;SDS011;11754;42.664;23.594;2023-04-07T08:18:53;12.65;;;9.38;;
23171;SDS011;11754;42.664;23.594;2023-04-07T08:21:18;18.25;;;9.52;;
23171;SDS011;11754;42.664;23.594;2023-04-07T08:23:45;14.65;;;9.68;;
23171;SDS011;11754;42.664;23.594;2023-04-07T08:26:10;20.05;;;10.55;;
23171;SDS011;11754;42.664;23.594;2023-04-07T08:28:35;15.57;;;9.30;;
23171;SDS011;11754;42.664;23.594;2023-04-07T08:31:01;15.15;;;9.30;;
23171;SDS011;11754;42.664;23.594;2023-04-07T08:33:26;13.88;;;9.20;;
23171;SDS011;11754;42.664;23.594;2023-04-07T08:35:52;12.63;;;9.13;;
23171;SDS011;11754;42.664;23.594;2023-04-07T08:38:17;14.63;;;9.30;;
23171;SDS011;11754;42.664;23.594;2023-04-07T08:40:42;14.48;;;9.13;;
23171;SDS011;11754;42.664;23.594;2023-04-07T08:43:08;14.45;;;8.07;;
23171;SDS011;11754;42.664;23.594;2023-04-07T08:45:38;13.40;;;8.57;;
23171;SDS011;11754;42.664;23.594;2023-04-07T08:48:07;11.13;;;7.95;;
23171;SDS011;11754;42.664;23.594;2023-04-07T08:50:40;15.48;;;8.30;;
23171;SDS011;11754;42.664;23.594;2023-04-07T08:53:12;14.68;;;8.27;;
23171;SDS011;11754;42.664;23.594;2023-04-07T08:55:41;26.27;;;8.23;;
23171;SDS011;11754;42.664;23.594;2023-04-07T08:58:08;16.77;;;9.57;;
23171;SDS011;11754;42.664;23.594;2023-04-07T09:00:36;24.25;;;8.82;;
23171;SDS011;11754;42.664;23.594;2023-04-07T09:03:04;12.45;;;8.38;;
23171;SDS011;11754;42.664;23.594;2023-04-07T09:05:31;11.63;;;7.43;;
23171;SDS011;11754;42.664;23.594;2023-04-07T09:07:58;12.27;;;7.00;;
23171;SDS011;11754;42.664;23.594;2023-04-07T09:10:23;21.60;;;12.05;;
23171;SDS011;11754;42.664;23.594;2023-04-07T09:12:49;31.95;;;18.67;;
23171;SDS011;11754;42.664;23.594;2023-04-07T09:15:14;72.28;;;38.47;;
23171;SDS011;11754;42.664;23.594;2023-04-07T09:17:40;64.63;;;32.85;;
23171;SDS011;11754;42.664;23.594;2023-04-07T09:20:05;35.33;;;15.48;;
23171;SDS011;11754;42.664;23.594;2023-04-07T09:22:35;7.63;;;6.07;;
23171;SDS011;11754;42.664;23.594;2023-04-07T09:25:08;9.80;;;6.15;;
23171;SDS011;11754;42.664;23.594;2023-04-07T09:27:35;35.25;;;19.02;;
23171;SDS011;11754;42.664;23.594;2023-04-07T09:30:10;10.00;;;6.50;;
23171;SDS011;11754;42.664;23.594;2023-04-07T09:32:36;28.92;;;15.15;;
23171;SDS011;11754;42.664;23.594;2023-04-07T09:35:08;13.77;;;7.45;;
23171;SDS011;11754;42.664;23.594;2023-04-07T09:37:34;10.45;;;5.55;;
23171;SDS011;11754;42.664;23.594;2023-04-07T09:40:00;8.25;;;5.75;;
23171;SDS011;11754;42.664;23.594;2023-04-07T09:42:26;25.65;;;10.88;;
23171;SDS011;11754;42.664;23.594;2023-04-07T09:44:56;14.48;;;7.07;;
23171;SDS011;11754;42.664;23.594;2023-04-07T09:47:26;14.73;;;5.97;;
23171;SDS011;11754;42.664;23.594;2023-04-07T09:52:21;9.48;;;6.15;;
23171;SDS011;11754;42.664;23.594;2023-04-07T09:54:50;10.07;;;6.78;;
23171;SDS011;11754;42.664;23.594;2023-04-07T09:57:17;7.60;;;6.45;;
23171;SDS011;11754;42.664;23.594;2023-04-07T09:59:43;14.23;;;7.93;;
23171;SDS011;11754;42.664;23.594;2023-04-07T10:02:09;15.05;;;9.23;;
23171;SDS011;11754;42.664;23.594;2023-04-07T10:04:36;12.10;;;6.65;;
23171;SDS011;11754;42.664;23.594;2023-04-07T10:07:03;12.90;;;7.03;;
23171;SDS011;11754;42.664;23.594;2023-04-07T10:09:29;11.35;;;6.10;;
23171;SDS011;11754;42.664;23.594;2023-04-07T10:11:56;12.48;;;6.68;;
23171;SDS011;11754;42.664;23.594;2023-04-07T10:14:25;13.52;;;8.50;;
23171;SDS011;11754;42.664;23.594;2023-04-07T10:16:58;11.73;;;6.00;;
23171;SDS011;11754;42.664;23.594;2023-04-07T10:19:25;11.90;;;7.07;;
23171;SDS011;11754;42.664;23.594;2023-04-07T10:22:01;14.32;;;7.80;;
23171;SDS011;11754;42.664;23.594;2023-04-07T10:24:32;10.48;;;6.50;;
23171;SDS011;11754;42.664;23.594;2023-04-07T10:27:13;17.27;;;10.40;;
23171;SDS011;11754;42.664;23.594;2023-04-07T10:29:43;23.45;;;11.73;;
23171;SDS011;11754;42.664;23.594;2023-04-07T10:32:13;17.65;;;9.35;;
23171;SDS011;11754;42.664;23.594;2023-04-07T10:37:19;7.95;;;5.93;;
23171;SDS011;11754;42.664;23.594;2023-04-07T10:39:46;7.63;;;5.00;;
23171;SDS011;11754;42.664;23.594;2023-04-07T10:42:45;16.60;;;5.55;;
23171;SDS011;11754;42.664;23.594;2023-04-07T10:45:04;7.88;;;4.53;;
23171;SDS011;11754;42.664;23.594;2023-04-07T10:47:31;6.70;;;4.28;;
23171;SDS011;11754;42.664;23.594;2023-04-07T10:52:45;10.27;;;6.78;;
23171;SDS011;11754;42.664;23.594;2023-04-07T10:55:31;10.05;;;7.25;;
23171;SDS011;11754;42.664;23.594;2023-04-07T10:58:23;7.32;;;4.40;;
23171;SDS011;11754;42.664;23.594;2023-04-07T11:03:39;19.15;;;11.05;;
23171;SDS011;11754;42.664;23.594;2023-04-07T11:06:07;13.85;;;9.80;;
23171;SDS011;11754;42.664;23.594;2023-04-07T11:08:34;10.18;;;7.57;;
23171;SDS011;11754;42.664;23.594;2023-04-07T11:11:04;15.68;;;8.15;;
23171;SDS011;11754;42.664;23.594;2023-04-07T11:13:46;9.57;;;5.47;;
23171;SDS011;11754;42.664;23.594;2023-04-07T11:16:12;11.73;;;5.95;;
23171;SDS011;11754;42.664;23.594;2023-04-07T11:18:39;11.77;;;7.18;;
23171;SDS011;11754;42.664;23.594;2023-04-07T11:21:05;10.02;;;6.20;;
23171;SDS011;11754;42.664;23.594;2023-04-07T11:23:38;20.27;;;6.35;;
23171;SDS011;11754;42.664;23.594;2023-04-07T11:26:06;8.90;;;5.72;;
23171;SDS011;11754;42.664;23.594;2023-04-07T11:28:32;11.73;;;5.60;;
23171;SDS011;11754;42.664;23.594;2023-04-07T11:30:58;10.65;;;5.90;;
23171;SDS011;11754;42.664;23.594;2023-04-07T11:33:27;10.00;;;6.20;;
23171;SDS011;11754;42.664;23.594;2023-04-07T11:35:55;14.68;;;7.45;;
23171;SDS011;11754;42.664;23.594;2023-04-07T11:38:21;13.52;;;6.85;;
23171;SDS011;11754;42.664;23.594;2023-04-07T11:40:49;11.07;;;6.72;;
23171;SDS011;11754;42.664;23.594;2023-04-07T11:43:36;13.35;;;6.75;;
23171;SDS011;11754;42.664;23.594;2023-04-07T11:48:47;13.02;;;7.70;;
23171;SDS011;11754;42.664;23.594;2023-04-07T11:51:34;10.82;;;6.82;;
23171;SDS011;11754;42.664;23.594;2023-04-07T11:53:58;14.10;;;6.53;;
23171;SDS011;11754;42.664;23.594;2023-04-07T11:56:24;9.48;;;6.70;;
23171;SDS011;11754;42.664;23.594;2023-04-07T11:58:53;10.48;;;6.07;;
23171;SDS011;11754;42.664;23.594;2023-04-07T12:01:19;12.98;;;6.70;;
23171;SDS011;11754;42.664;23.594;2023-04-07T12:03:58;10.45;;;7.43;;
23171;SDS011;11754;42.664;23.594;2023-04-07T12:21:02;6.63;;;4.07;;
23171;SDS011;11754;42.664;23.594;2023-04-07T12:23:28;7.03;;;4.03;;
23171;SDS011;11754;42.664;23.594;2023-04-07T12:25:53;11.98;;;3.55;;
23171;SDS011;11754;42.664;23.594;2023-04-07T12:28:19;6.30;;;3.45;;
23171;SDS011;11754;42.664;23.594;2023-04-07T12:30:44;8.73;;;4.82;;
23171;SDS011;11754;42.664;23.594;2023-04-07T12:33:10;5.65;;;3.60;;
23171;SDS011;11754;42.664;23.594;2023-04-07T12:35:35;9.52;;;4.68;;
23171;SDS011;11754;42.664;23.594;2023-04-07T12:38:02;11.32;;;5.30;;
23171;SDS011;11754;42.664;23.594;2023-04-07T12:40:29;9.95;;;4.47;;
23171;SDS011;11754;42.664;23.594;2023-04-07T12:42:55;6.28;;;3.92;;
23171;SDS011;11754;42.664;23.594;2023-04-07T12:45:22;6.65;;;4.82;;
23171;SDS011;11754;42.664;23.594;2023-04-07T12:47:48;12.50;;;6.35;;
23171;SDS011;11754;42.664;23.594;2023-04-07T12:50:13;12.02;;;4.18;;
23171;SDS011;11754;42.664;23.594;2023-04-07T12:52:39;5.47;;;4.03;;
23171;SDS011;11754;42.664;23.594;2023-04-07T12:55:05;6.72;;;4.80;;
23171;SDS011;11754;42.664;23.594;2023-04-07T12:57:30;6.88;;;6.13;;
23171;SDS011;11754;42.664;23.594;2023-04-07T12:59:56;12.32;;;5.97;;
23171;SDS011;11754;42.664;23.594;2023-04-07T13:02:22;9.15;;;5.57;;
23171;SDS011;11754;42.664;23.594;2023-04-07T13:04:48;11.50;;;8.88;;
23171;SDS011;11754;42.664;23.594;2023-04-07T13:07:13;11.70;;;6.80;;
23171;SDS011;11754;42.664;23.594;2023-04-07T13:09:40;17.45;;;6.32;;
23171;SDS011;11754;42.664;23.594;2023-04-07T13:12:09;10.27;;;6.55;;
23171;SDS011;11754;42.664;23.594;2023-04-07T13:14:35;15.32;;;7.55;;
23171;SDS011;11754;42.664;23.594;2023-04-07T13:17:05;33.65;;;7.32;;
23171;SDS011;11754;42.664;23.594;2023-04-07T13:19:32;9.98;;;5.88;;
23171;SDS011;11754;42.664;23.594;2023-04-07T13:21:57;13.38;;;7.68;;
23171;SDS011;11754;42.664;23.594;2023-04-07T13:24:23;10.55;;;7.03;;
23171;SDS011;11754;42.664;23.594;2023-04-07T13:26:49;10.98;;;6.93;;
23171;SDS011;11754;42.664;23.594;2023-04-07T13:29:15;12.38;;;6.80;;
23171;SDS011;11754;42.664;23.594;2023-04-07T13:31:40;10.82;;;7.18;;
23171;SDS011;11754;42.664;23.594;2023-04-07T13:34:06;9.25;;;6.68;;
23171;SDS011;11754;42.664;23.594;2023-04-07T13:36:31;11.30;;;5.93;;
23171;SDS011;11754;42.664;23.594;2023-04-07T13:38:57;11.50;;;6.68;;
23171;SDS011;11754;42.664;23.594;2023-04-07T13:41:23;14.35;;;6.35;;
23171;SDS011;11754;42.664;23.594;2023-04-07T13:43:48;10.40;;;6.72;;
23171;SDS011;11754;42.664;23.594;2023-04-07T13:46:14;12.45;;;6.97;;
23171;SDS011;11754;42.664;23.594;2023-04-07T13:48:41;12.32;;;7.07;;
23171;SDS011;11754;42.664;23.594;2023-04-07T13:51:08;14.93;;;6.35;;
23171;SDS011;11754;42.664;23.594;2023-04-07T13:53:34;14.15;;;7.45;;
23171;SDS011;11754;42.664;23.594;2023-04-07T13:56:00;13.55;;;7.90;;
23171;SDS011;11754;42.664;23.594;2023-04-07T13:58:25;19.00;;;8.57;;
23171;SDS011;11754;42.664;23.594;2023-04-07T14:00:51;11.98;;;8.13;;
23171;SDS011;11754;42.664;23.594;2023-04-07T14:03:16;11.07;;;7.40;;
23171;SDS011;11754;42.664;23.594;2023-04-07T14:05:41;16.80;;;8.48;;
23171;SDS011;11754;42.664;23.594;2023-04-07T14:08:07;14.98;;;7.20;;
23171;SDS011;11754;42.664;23.594;2023-04-07T14:10:32;12.90;;;7.50;;
23171;SDS011;11754;42.664;23.594;2023-04-07T14:12:58;12.32;;;7.43;;
23171;SDS011;11754;42.664;23.594;2023-04-07T14:15:24;16.20;;;8.60;;
23171;SDS011;11754;42.664;23.594;2023-04-07T14:17:50;10.93;;;7.40;;
23171;SDS011;11754;42.664;23.594;2023-04-07T14:20:15;11.40;;;7.10;;
23171;SDS011;11754;42.664;23.594;2023-04-07T14:22:41;14.88;;;7.50;;
23171;SDS011;11754;42.664;23.594;2023-04-07T14:25:06;14.15;;;7.70;;
23171;SDS011;11754;42.664;23.594;2023-04-07T14:27:32;15.07;;;7.55;;
23171;SDS011;11754;42.664;23.594;2023-04-07T14:29:57;12.63;;;7.55;;
23171;SDS011;11754;42.664;23.594;2023-04-07T14:32:23;9.65;;;7.18;;
23171;SDS011;11754;42.664;23.594;2023-04-07T14:34:49;15.13;;;7.28;;
23171;SDS011;11754;42.664;23.594;2023-04-07T14:37:14;14.70;;;7.78;;
23171;SDS011;11754;42.664;23.594;2023-04-07T14:39:42;12.55;;;7.55;;
23171;SDS011;11754;42.664;23.594;2023-04-07T14:42:07;10.63;;;7.30;;
23171;SDS011;11754;42.664;23.594;2023-04-07T14:44:33;14.75;;;7.80;;
23171;SDS011;11754;42.664;23.594;2023-04-07T14:46:58;11.18;;;6.90;;
23171;SDS011;11754;42.664;23.594;2023-04-07T14:49:24;12.00;;;7.63;;
23171;SDS011;11754;42.664;23.594;2023-04-07T14:51:52;14.48;;;8.85;;
23171;SDS011;11754;42.664;23.594;2023-04-07T14:54:18;16.38;;;9.02;;
23171;SDS011;11754;42.664;23.594;2023-04-07T14:56:43;12.50;;;8.10;;
23171;SDS011;11754;42.664;23.594;2023-04-07T14:59:09;16.88;;;8.70;;
23171;SDS011;11754;42.664;23.594;2023-04-07T15:01:34;12.95;;;8.63;;
23171;SDS011;11754;42.664;23.594;2023-04-07T15:04:00;13.57;;;8.50;;
23171;SDS011;11754;42.664;23.594;2023-04-07T15:06:25;9.57;;;7.97;;
23171;SDS011;11754;42.664;23.594;2023-04-07T15:08:51;11.00;;;8.35;;
23171;SDS011;11754;42.664;23.594;2023-04-07T15:11:17;15.65;;;8.63;;